Time;durP1;ratioP1;P1;durP2;ratioP2;P2;SDS_P1;SDS_P2;PMS_P1;PMS_P2;Temp;Humidity;BMP_temperature;BMP_pressure;BME280_temperature;BME280_humidity;BME280_pressure;Samples;Min_cycle;Max_cycle;Signal;HPM_P1;HPM_P2
2021/05/19 00:01:59;;;;;;;6.82;2.17;;;13.00;71.70;;;;;;4871160;29;20053;-72
2021/05/19 00:04:25;;;;;;;4.03;1.60;;;12.90;71.60;;;;;;4872534;29;20032;-72
2021/05/19 00:06:51;;;;;;;9.65;2.03;;;12.90;70.90;;;;;;4870650;29;20029;-73
2021/05/19 00:09:17;;;;;;;7.00;1.85;;;12.80;71.40;;;;;;4885132;29;20029;-72
2021/05/19 00:11:45;;;;;;;6.50;1.40;;;12.80;70.40;;;;;;4884698;29;20033;-72
2021/05/19 00:14:13;;;;;;;7.35;2.35;;;12.90;71.00;;;;;;4872843;29;20040;-72
2021/05/19 00:16:39;;;;;;;6.95;1.75;;;12.80;70.70;;;;;;4869637;29;20080;-72
2021/05/19 00:19:05;;;;;;;5.53;1.40;;;12.80;70.10;;;;;;4885502;29;20467;-72
2021/05/19 00:21:31;;;;;;;8.48;2.75;;;12.90;70.00;;;;;;4867893;29;20028;-72
2021/05/19 00:23:57;;;;;;;8.20;1.48;;;12.80;69.20;;;;;;4874275;29;20062;-72
2021/05/19 00:26:25;;;;;;;8.80;2.40;;;12.80;71.00;;;;;;4872153;29;20021;-72
2021/05/19 00:28:53;;;;;;;5.32;1.88;;;12.70;71.70;;;;;;4882857;29;20127;-72
2021/05/19 00:31:22;;;;;;;8.98;1.80;;;12.70;71.50;;;;;;4866585;29;20021;-72
2021/05/19 00:33:48;;;;;;;6.07;1.60;;;12.70;71.30;;;;;;4865302;29;20034;-72
2021/05/19 00:36:13;;;;;;;7.15;1.92;;;12.60;70.30;;;;;;4872536;29;20028;-72
2021/05/19 00:38:39;;;;;;;6.85;1.73;;;12.70;71.00;;;;;;4874510;29;20037;-72
2021/05/19 00:41:12;;;;;;;10.25;2.83;;;12.60;71.90;;;;;;4884448;29;20029;-72
2021/05/19 00:43:39;;;;;;;8.30;2.38;;;12.60;70.80;;;;;;4883715;29;20092;-73
2021/05/19 00:46:06;;;;;;;8.02;1.58;;;12.60;71.80;;;;;;4867750;29;20100;-72
2021/05/19 00:48:32;;;;;;;6.93;2.05;;;12.50;70.90;;;;;;4882709;29;20033;-72
2021/05/19 00:50:59;;;;;;;9.30;2.60;;;12.60;69.00;;;;;;4872450;29;20037;-72
2021/05/19 00:53:25;;;;;;;8.88;2.67;;;12.50;70.20;;;;;;4858643;29;20037;-72
2021/05/19 00:55:51;;;;;;;6.32;2.05;;;12.50;71.70;;;;;;4867149;29;20100;-72
2021/05/19 00:58:17;;;;;;;7.00;1.98;;;12.50;71.70;;;;;;4865689;29;20040;-72
2021/05/19 01:00:42;;;;;;;10.90;1.75;;;12.50;70.70;;;;;;4870273;29;20031;-72
2021/05/19 01:03:08;;;;;;;5.47;1.73;;;12.50;69.40;;;;;;4869255;29;20062;-72
2021/05/19 01:10:45;;;;;;;8.20;1.77;;;12.60;67.20;;;;;;4873746;29;20063;-73
2021/05/19 01:13:11;;;;;;;8.80;1.75;;;12.60;68.00;;;;;;4873946;29;20033;-72
2021/05/19 01:15:37;;;;;;;7.40;2.35;;;12.60;69.30;;;;;;4883850;29;20029;-72
2021/05/19 01:18:05;;;;;;;5.45;1.65;;;12.60;69.70;;;;;;4876451;29;20058;-72
2021/05/19 01:20:31;;;;;;;5.55;1.55;;;12.60;68.20;;;;;;4865619;29;20101;-73
2021/05/19 01:22:57;;;;;;;8.48;1.75;;;12.70;67.90;;;;;;4865840;29;20041;-73
2021/05/19 01:25:23;;;;;;;6.70;1.73;;;12.70;67.00;;;;;;4865209;29;20033;-72
2021/05/19 01:27:59;;;;;;;4.53;1.40;;;12.70;66.80;;;;;;4872813;29;20036;-73
2021/05/19 01:30:26;;;;;;;5.05;1.48;;;12.70;68.00;;;;;;4865641;29;20037;-73
2021/05/19 01:32:52;;;;;;;7.35;1.70;;;12.70;68.50;;;;;;4865340;29;20029;-73
2021/05/19 01:35:19;;;;;;;8.18;1.80;;;12.60;69.30;;;;;;4882113;29;20088;-73
2021/05/19 01:37:46;;;;;;;5.88;1.58;;;12.60;69.30;;;;;;4871244;29;20053;-73
2021/05/19 01:40:15;;;;;;;5.00;1.40;;;12.60;68.20;;;;;;4872956;29;20077;-73
2021/05/19 01:42:44;;;;;;;6.97;1.83;;;12.60;67.90;;;;;;4869457;29;20029;-73
2021/05/19 01:45:11;;;;;;;5.97;1.50;;;12.60;67.40;;;;;;4865320;29;20037;-73
2021/05/19 01:47:42;;;;;;;7.88;1.80;;;12.70;68.90;;;;;;4865092;29;20061;-73
2021/05/19 01:50:20;;;;;;;8.10;1.88;;;12.60;69.60;;;;;;4868223;29;20573;-73
2021/05/19 01:52:47;;;;;;;6.05;1.73;;;12.60;71.70;;;;;;4865303;29;20025;-73
2021/05/19 01:55:15;;;;;;;6.25;1.95;;;12.60;71.80;;;;;;4877566;29;20040;-73
2021/05/19 01:57:46;;;;;;;6.82;1.45;;;12.60;72.00;;;;;;4864908;29;20373;-74
2021/05/19 02:00:14;;;;;;;7.35;1.35;;;12.60;73.40;;;;;;4874562;29;20038;-73
2021/05/19 02:02:41;;;;;;;6.63;2.72;;;12.60;71.40;;;;;;4865132;29;20055;-73
2021/05/19 02:05:10;;;;;;;10.25;1.92;;;12.50;72.30;;;;;;4854003;29;20032;-73
2021/05/19 02:07:36;;;;;;;8.20;1.90;;;12.50;73.10;;;;;;4874413;29;20078;-73
2021/05/19 02:10:07;;;;;;;8.98;1.90;;;12.40;72.40;;;;;;4875638;29;20389;-73
2021/05/19 02:12:33;;;;;;;8.40;1.77;;;12.40;72.80;;;;;;4864792;29;20033;-73
2021/05/19 02:14:59;;;;;;;9.43;2.22;;;12.40;74.30;;;;;;4864937;29;20058;-73
2021/05/19 02:17:27;;;;;;;10.65;1.90;;;12.40;75.30;;;;;;4871693;29;20063;-73
2021/05/19 02:19:53;;;;;;;5.63;1.70;;;12.40;74.40;;;;;;4882711;29;20107;-73
2021/05/19 02:22:18;;;;;;;11.35;2.13;;;12.40;74.80;;;;;;4882932;29;20042;-73
2021/05/19 02:24:44;;;;;;;10.65;2.70;;;12.40;73.80;;;;;;4883549;29;20488;-74
2021/05/19 02:27:10;;;;;;;10.65;3.05;;;12.50;75.40;;;;;;4877784;29;20089;-74
2021/05/19 02:29:36;;;;;;;6.95;2.00;;;12.50;75.90;;;;;;4882598;29;20053;-74
2021/05/19 02:32:02;;;;;;;8.52;1.98;;;12.50;75.70;;;;;;4881631;29;20076;-73
2021/05/19 02:34:28;;;;;;;6.50;1.63;;;12.50;75.70;;;;;;4881248;29;20073;-73
2021/05/19 02:36:54;;;;;;;9.55;1.80;;;12.50;76.20;;;;;;4883573;29;20502;-73
2021/05/19 02:39:20;;;;;;;10.40;2.45;;;12.50;74.80;;;;;;4869819;29;20116;-73
2021/05/19 02:41:46;;;;;;;6.18;2.15;;;12.50;74.70;;;;;;4868284;29;20045;-73
2021/05/19 02:44:11;;;;;;;6.95;1.65;;;12.50;75.90;;;;;;4868527;29;20026;-73
2021/05/19 02:46:38;;;;;;;8.00;1.98;;;12.50;75.10;;;;;;4869805;29;20033;-73
2021/05/19 02:49:05;;;;;;;11.48;2.28;;;12.50;75.90;;;;;;4886604;29;20025;-73
2021/05/19 02:51:32;;;;;;;8.77;1.98;;;12.50;77.40;;;;;;4877114;29;20086;-74
2021/05/19 02:53:58;;;;;;;7.93;2.00;;;12.40;77.00;;;;;;4875100;29;20035;-74
2021/05/19 02:56:24;;;;;;;6.90;2.13;;;12.40;76.90;;;;;;4885993;29;20104;-74
2021/05/19 02:58:51;;;;;;;10.23;3.08;;;12.40;77.20;;;;;;4886286;29;20037;-73
2021/05/19 03:01:17;;;;;;;8.57;2.10;;;12.40;76.70;;;;;;4872968;29;20046;-73
2021/05/19 03:03:43;;;;;;;9.43;2.45;;;12.40;76.20;;;;;;4867977;29;20028;-73
2021/05/19 03:06:09;;;;;;;7.45;2.13;;;12.40;77.30;;;;;;4868055;29;20112;-74
2021/05/19 03:08:35;;;;;;;9.18;2.80;;;12.50;76.40;;;;;;4883890;29;20060;-74
2021/05/19 03:11:02;;;;;;;7.05;2.75;;;12.50;77.10;;;;;;4858427;29;20068;-74
2021/05/19 03:13:28;;;;;;;9.70;2.92;;;12.50;77.20;;;;;;4867663;29;20576;-74
2021/05/19 03:15:53;;;;;;;6.43;2.90;;;12.50;77.60;;;;;;4867851;29;20112;-73
2021/05/19 03:18:19;;;;;;;6.60;3.20;;;12.40;76.10;;;;;;4882404;29;20515;-73
2021/05/19 03:20:45;;;;;;;8.73;2.67;;;12.40;76.60;;;;;;4877818;29;20164;-73
2021/05/19 03:23:11;;;;;;;5.63;2.50;;;12.40;75.70;;;;;;4868569;29;20052;-73
2021/05/19 03:25:37;;;;;;;7.90;2.45;;;12.40;75.80;;;;;;4867776;29;20481;-73
2021/05/19 03:28:02;;;;;;;5.32;2.00;;;12.40;75.80;;;;;;4882225;29;20504;-73
2021/05/19 03:30:28;;;;;;;6.43;2.80;;;12.40;74.90;;;;;;4885745;29;20064;-73
2021/05/19 03:32:54;;;;;;;5.97;1.55;;;12.30;75.40;;;;;;4885905;29;20044;-73
2021/05/19 03:35:20;;;;;;;3.80;1.35;;;12.30;74.50;;;;;;4885037;29;20076;-73
2021/05/19 03:37:46;;;;;;;3.00;1.33;;;12.40;74.30;;;;;;4885944;29;20121;-73
2021/05/19 03:40:14;;;;;;;6.55;1.85;;;12.30;74.10;;;;;;4885288;29;20071;-73
2021/05/19 03:42:41;;;;;;;8.82;2.00;;;12.30;73.00;;;;;;4876438;29;20021;-73
2021/05/19 03:45:09;;;;;;;3.80;1.13;;;12.30;74.10;;;;;;4872821;29;20022;-73
2021/05/19 03:47:35;;;;;;;4.57;1.33;;;12.30;72.90;;;;;;4866961;29;20521;-73
2021/05/19 03:50:02;;;;;;;5.63;1.65;;;12.20;73.30;;;;;;4867779;29;20060;-73
2021/05/19 03:52:31;;;;;;;3.28;1.30;;;12.20;74.00;;;;;;4885840;29;20029;-73
2021/05/19 03:54:56;;;;;;;3.67;1.30;;;12.20;72.00;;;;;;4883395;29;20076;-73
2021/05/19 03:57:22;;;;;;;7.40;1.45;;;12.10;72.70;;;;;;4880672;29;20037;-74
2021/05/19 03:59:48;;;;;;;3.88;1.92;;;12.10;72.50;;;;;;4885648;29;20145;-74
2021/05/19 04:02:14;;;;;;;5.13;1.60;;;12.00;71.90;;;;;;4884804;29;20121;-73
2021/05/19 04:04:40;;;;;;;2.67;1.17;;;11.90;73.20;;;;;;4884031;29;20025;-74
2021/05/19 04:07:07;;;;;;;4.85;1.45;;;11.90;73.20;;;;;;4872037;29;20425;-73
2021/05/19 04:09:32;;;;;;;3.95;1.38;;;11.90;73.40;;;;;;4884482;29;20048;-74
2021/05/19 04:11:58;;;;;;;2.30;1.15;;;11.80;73.10;;;;;;4866518;29;20025;-74
2021/05/19 04:14:24;;;;;;;6.90;1.88;;;11.80;73.70;;;;;;4867251;29;20030;-74
2021/05/19 04:16:50;;;;;;;5.10;1.60;;;11.80;72.60;;;;;;4866681;29;20540;-73
2021/05/19 04:19:16;;;;;;;4.93;1.65;;;11.80;73.30;;;;;;4866682;29;20073;-73
2021/05/19 04:21:42;;;;;;;5.13;1.60;;;11.70;73.00;;;;;;4868136;29;20684;-73
2021/05/19 04:24:08;;;;;;;4.22;1.40;;;11.70;72.40;;;;;;4872023;29;20021;-73
2021/05/19 04:26:34;;;;;;;3.92;1.25;;;11.70;72.00;;;;;;4883357;29;20089;-73
2021/05/19 04:28:59;;;;;;;2.63;1.20;;;11.70;72.80;;;;;;4883315;29;20025;-73
2021/05/19 04:31:25;;;;;;;4.22;1.40;;;11.60;73.00;;;;;;4885133;29;20112;-73
2021/05/19 04:33:51;;;;;;;3.72;1.20;;;11.60;72.60;;;;;;4874584;29;20029;-78
2021/05/19 04:36:17;;;;;;;4.40;1.83;;;11.60;72.70;;;;;;4884985;29;20029;-78
2021/05/19 04:38:43;;;;;;;2.92;1.10;;;11.60;71.90;;;;;;4866124;29;20081;-77
2021/05/19 04:41:09;;;;;;;4.93;1.83;;;11.60;71.60;;;;;;4868147;29;20075;-79
2021/05/19 04:43:34;;;;;;;3.55;1.50;;;11.60;71.10;;;;;;4883769;29;20412;-79
2021/05/19 04:46:00;;;;;;;3.45;1.20;;;11.60;71.50;;;;;;4866423;29;20033;-71
2021/05/19 04:48:27;;;;;;;5.25;2.00;;;11.50;71.90;;;;;;4872444;29;20109;-75
2021/05/19 04:50:54;;;;;;;6.18;1.17;;;11.50;70.70;;;;;;4865086;29;20038;-76
2021/05/19 04:53:20;;;;;;;4.30;1.23;;;11.60;71.50;;;;;;4866251;29;20026;-76
2021/05/19 04:55:46;;;;;;;2.97;1.30;;;11.50;71.50;;;;;;4870935;29;20458;-74
2021/05/19 04:58:11;;;;;;;4.75;1.40;;;11.50;72.50;;;;;;4872957;29;20053;-75
2021/05/19 05:00:37;;;;;;;4.95;1.50;;;11.50;72.10;;;;;;4865183;29;20036;-74
2021/05/19 05:03:04;;;;;;;2.78;1.42;;;11.50;72.20;;;;;;4854366;29;20128;-73
2021/05/19 05:05:30;;;;;;;4.78;1.48;;;11.50;71.90;;;;;;4856140;29;20038;-74
2021/05/19 05:07:55;;;;;;;4.22;1.30;;;11.50;71.10;;;;;;4865867;29;20068;-73
2021/05/19 05:10:21;;;;;;;5.05;1.38;;;11.50;71.10;;;;;;4852864;29;20038;-70
2021/05/19 05:12:49;;;;;;;2.83;1.10;;;11.50;72.40;;;;;;4858160;29;20040;-72
2021/05/19 05:15:16;;;;;;;3.33;1.40;;;11.50;72.20;;;;;;4856602;29;20617;-71
2021/05/19 05:17:42;;;;;;;3.13;1.20;;;11.50;72.90;;;;;;4859222;29;20034;-71
2021/05/19 05:20:09;;;;;;;4.93;1.25;;;11.40;73.60;;;;;;4840773;29;20048;-72
2021/05/19 05:22:36;;;;;;;3.42;1.15;;;11.40;73.40;;;;;;4831737;29;20025;-74
2021/05/19 05:25:04;;;;;;;5.30;1.50;;;11.40;73.20;;;;;;4861307;29;20037;-79
2021/05/19 05:27:29;;;;;;;4.65;1.27;;;11.40;72.80;;;;;;4865055;29;20039;-76
2021/05/19 05:29:55;;;;;;;4.95;1.23;;;11.40;73.30;;;;;;4864263;29;20151;-71
2021/05/19 05:32:21;;;;;;;6.55;1.45;;;11.40;73.40;;;;;;4865724;29;20026;-74
2021/05/19 05:34:47;;;;;;;5.47;1.20;;;11.50;73.00;;;;;;4859574;29;20034;-75
2021/05/19 05:37:13;;;;;;;4.43;1.30;;;11.40;73.80;;;;;;4861842;29;20397;-73
2021/05/19 05:39:39;;;;;;;3.35;1.13;;;11.40;73.10;;;;;;4852691;29;20041;-74
2021/05/19 05:42:05;;;;;;;6.93;1.30;;;11.40;74.10;;;;;;4860887;29;20391;-74
2021/05/19 05:44:31;;;;;;;4.40;1.13;;;11.40;73.70;;;;;;4869733;29;20021;-75
2021/05/19 05:46:56;;;;;;;3.75;1.17;;;11.40;74.40;;;;;;4850899;29;20054;-74
2021/05/19 05:49:22;;;;;;;4.95;1.10;;;11.40;74.00;;;;;;4855089;29;20371;-74
2021/05/19 05:51:48;;;;;;;6.72;1.65;;;11.40;74.60;;;;;;4849922;29;20049;-74
2021/05/19 05:54:14;;;;;;;4.60;1.30;;;11.40;74.50;;;;;;4864670;29;20027;-73
2021/05/19 05:56:41;;;;;;;4.90;1.20;;;11.40;74.00;;;;;;4865079;29;20040;-74
2021/05/19 05:59:10;;;;;;;4.95;1.50;;;11.40;74.20;;;;;;4850271;29;20030;-72
2021/05/19 06:01:36;;;;;;;3.70;1.38;;;11.40;73.70;;;;;;4881645;29;20180;-73
2021/05/19 06:04:02;;;;;;;3.38;1.27;;;11.40;75.00;;;;;;4865057;29;20061;-72
2021/05/19 06:06:28;;;;;;;4.75;1.90;;;11.40;74.30;;;;;;4865988;29;20029;-71
2021/05/19 06:08:54;;;;;;;3.60;1.00;;;11.50;74.80;;;;;;4883082;29;20040;-73
2021/05/19 06:11:20;;;;;;;4.35;1.52;;;11.50;74.90;;;;;;4883932;29;20075;-73
2021/05/19 06:13:45;;;;;;;7.18;1.77;;;11.60;75.40;;;;;;4881785;29;20062;-73
2021/05/19 06:16:11;;;;;;;5.03;1.58;;;11.70;74.70;;;;;;4873858;29;20459;-72
2021/05/19 06:18:37;;;;;;;6.10;1.20;;;11.70;74.90;;;;;;4882613;29;20104;-73
2021/05/19 06:21:03;;;;;;;3.42;1.13;;;11.70;74.30;;;;;;4884720;29;20029;-73
2021/05/19 06:23:29;;;;;;;4.90;1.50;;;11.70;75.20;;;;;;4883394;29;20059;-72
2021/05/19 06:25:55;;;;;;;3.20;1.13;;;11.70;74.80;;;;;;4870423;29;20037;-73
2021/05/19 06:28:21;;;;;;;5.63;1.80;;;11.70;74.20;;;;;;4890571;29;20043;-72
2021/05/19 06:30:47;;;;;;;4.18;1.42;;;11.70;74.10;;;;;;4865014;29;20558;-72
2021/05/19 06:33:13;;;;;;;3.65;1.23;;;11.80;75.10;;;;;;4878483;29;20116;-73
2021/05/19 06:35:39;;;;;;;2.97;1.00;;;11.80;75.30;;;;;;4882748;29;20041;-73
2021/05/19 06:38:04;;;;;;;3.42;1.30;;;11.80;75.60;;;;;;4867888;29;20045;-73
2021/05/19 06:40:30;;;;;;;6.38;1.52;;;11.80;75.10;;;;;;4878885;29;20113;-73
2021/05/19 06:42:57;;;;;;;3.92;1.15;;;12.00;75.40;;;;;;4882812;29;20044;-73
2021/05/19 06:45:23;;;;;;;4.85;1.50;;;12.10;75.00;;;;;;4882831;29;20432;-73
2021/05/19 06:47:51;;;;;;;4.45;1.23;;;12.30;75.30;;;;;;4882957;29;20041;-72
2021/05/19 06:50:16;;;;;;;5.05;1.40;;;12.50;73.90;;;;;;4882459;29;20032;-72
2021/05/19 06:52:42;;;;;;;6.03;2.10;;;12.70;73.70;;;;;;4883008;29;20395;-72
2021/05/19 06:55:10;;;;;;;3.80;1.20;;;12.90;73.20;;;;;;4882834;29;20085;-73
2021/05/19 06:57:36;;;;;;;4.82;1.20;;;13.10;72.90;;;;;;4881386;29;20033;-73
2021/05/19 07:00:07;;;;;;;5.25;1.20;;;13.40;72.50;;;;;;4871001;29;20037;-73
2021/05/19 07:02:34;;;;;;;3.10;1.20;;;13.90;72.00;;;;;;4893086;29;20051;-73
2021/05/19 07:05:00;;;;;;;3.92;1.33;;;14.30;70.70;;;;;;4867191;29;20113;-73
2021/05/19 07:07:26;;;;;;;2.13;0.80;;;14.80;70.40;;;;;;4865022;29;20033;-73
2021/05/19 07:09:51;;;;;;;4.30;0.90;;;15.20;68.00;;;;;;4876069;29;20429;-74
2021/05/19 07:12:17;;;;;;;5.82;1.00;;;15.60;68.00;;;;;;4873293;29;20029;-73
2021/05/19 07:14:49;;;;;;;9.75;1.23;;;16.00;66.40;;;;;;4868794;29;20089;-73
2021/05/19 07:17:16;;;;;;;4.40;1.20;;;16.30;65.20;;;;;;4864185;29;20090;-73
2021/05/19 07:19:41;;;;;;;4.82;1.10;;;16.50;64.00;;;;;;4864602;29;20033;-73
2021/05/19 07:22:07;;;;;;;5.88;1.13;;;16.60;64.10;;;;;;4864292;29;20026;-73
2021/05/19 07:24:33;;;;;;;2.22;0.73;;;16.70;63.40;;;;;;4880030;29;20021;-73
2021/05/19 07:26:59;;;;;;;3.92;0.82;;;16.80;63.10;;;;;;4886196;29;20025;-73
2021/05/19 07:29:25;;;;;;;4.13;1.45;;;16.80;63.00;;;;;;4870019;29;20508;-74
2021/05/19 07:31:51;;;;;;;5.75;1.30;;;16.80;62.20;;;;;;4879629;29;20033;-73
2021/05/19 07:34:17;;;;;;;3.22;0.82;;;16.80;61.70;;;;;;4867666;29;20088;-73
2021/05/19 07:36:43;;;;;;;6.65;0.98;;;16.80;62.20;;;;;;4884123;29;20044;-73
2021/05/19 07:39:10;;;;;;;3.80;0.90;;;16.90;62.80;;;;;;4882802;29;20508;-73
2021/05/19 07:41:36;;;;;;;5.00;0.90;;;17.10;62.60;;;;;;4867053;29;20396;-73
2021/05/19 07:44:03;;;;;;;4.20;0.85;;;17.40;61.90;;;;;;4875338;29;20029;-73
2021/05/19 07:46:29;;;;;;;3.42;0.88;;;17.60;61.00;;;;;;4867071;29;20054;-73
2021/05/19 07:48:55;;;;;;;4.18;0.80;;;17.50;61.30;;;;;;4867559;29;20493;-74
2021/05/19 07:51:21;;;;;;;3.08;1.02;;;17.60;61.60;;;;;;4867252;29;20030;-73
2021/05/19 07:53:46;;;;;;;4.45;0.88;;;17.80;58.70;;;;;;4867135;29;20587;-73
2021/05/19 07:58:43;;;;;;;4.85;1.20;;;17.60;58.30;;;;;;4885031;29;20045;-73
2021/05/19 08:03:34;;;;;;;2.63;0.98;;;17.20;58.20;;;;;;4885305;29;20469;-73
2021/05/19 08:06:00;;;;;;;5.00;1.00;;;17.00;58.40;;;;;;4885788;29;20067;-73
2021/05/19 08:08:26;;;;;;;2.60;0.80;;;16.90;59.00;;;;;;4884434;29;20120;-73
2021/05/19 08:10:52;;;;;;;4.00;0.90;;;16.90;58.10;;;;;;4885191;29;20773;-73
2021/05/19 08:13:18;;;;;;;6.15;1.05;;;16.70;59.00;;;;;;4884460;29;20028;-73
2021/05/19 08:15:44;;;;;;;6.07;1.23;;;16.70;59.20;;;;;;4885486;29;20108;-73
2021/05/19 08:18:11;;;;;;;3.20;0.95;;;16.70;59.30;;;;;;4882854;29;20089;-73
2021/05/19 08:20:38;;;;;;;3.97;1.00;;;16.80;59.30;;;;;;4870663;29;20036;-73
2021/05/19 08:23:05;;;;;;;4.65;1.10;;;16.80;59.70;;;;;;4885454;29;20048;-73
2021/05/19 08:25:31;;;;;;;3.45;0.80;;;17.20;62.00;;;;;;4887195;29;20033;-73
2021/05/19 08:27:57;;;;;;;4.30;0.85;;;17.80;60.30;;;;;;4879491;29;20032;-73
2021/05/19 08:30:24;;;;;;;3.63;0.90;;;18.10;59.40;;;;;;4895507;29;20454;-73
2021/05/19 08:32:51;;;;;;;5.07;1.25;;;18.30;58.10;;;;;;4881295;29;20033;-73
2021/05/19 08:35:17;;;;;;;4.50;1.20;;;18.70;58.70;;;;;;4878119;29;20056;-73
2021/05/19 08:37:43;;;;;;;3.55;0.77;;;18.90;56.50;;;;;;4878104;29;20028;-73
2021/05/19 08:40:09;;;;;;;3.47;0.88;;;18.80;55.50;;;;;;4864897;29;20053;-73
2021/05/19 08:42:36;;;;;;;3.60;0.90;;;18.60;55.10;;;;;;4870971;29;20053;-73
2021/05/19 08:45:07;;;;;;;1.92;0.63;;;18.30;54.70;;;;;;4884918;29;20020;-73
2021/05/19 08:47:33;;;;;;;3.25;1.30;;;18.00;56.60;;;;;;4866458;29;20037;-73
2021/05/19 08:50:00;;;;;;;3.35;1.05;;;17.90;56.30;;;;;;4881896;29;20404;-71
2021/05/19 08:52:26;;;;;;;2.75;1.08;;;17.80;57.40;;;;;;4884144;29;20088;-73
2021/05/19 08:54:54;;;;;;;5.90;3.25;;;17.80;57.90;;;;;;4884532;29;20037;-73
2021/05/19 08:57:21;;;;;;;7.13;3.00;;;18.10;57.70;;;;;;4884474;29;20125;-73
2021/05/19 08:59:47;;;;;;;5.28;1.80;;;18.40;56.20;;;;;;4873659;29;20389;-73
2021/05/19 09:02:15;;;;;;;4.88;0.90;;;18.70;56.70;;;;;;4882720;29;20060;-73
2021/05/19 09:04:42;;;;;;;3.03;0.88;;;18.80;55.70;;;;;;4891773;29;20037;-73
2021/05/19 09:07:10;;;;;;;2.95;0.88;;;18.60;54.10;;;;;;4892073;29;20085;-73
2021/05/19 09:09:39;;;;;;;4.70;1.17;;;18.20;55.80;;;;;;4879240;29;20052;-73
2021/05/19 09:12:10;;;;;;;3.83;1.80;;;18.00;56.40;;;;;;4874118;29;20503;-73
2021/05/19 09:15:00;;;;;;;7.18;4.22;;;18.30;58.10;;;;;;4889082;29;20374;-73
2021/05/19 09:17:38;;;;;;;4.10;1.10;;;19.10;57.80;;;;;;4888343;29;20050;-73
2021/05/19 09:20:15;;;;;;;3.15;0.90;;;20.20;56.50;;;;;;4883518;29;20025;-70
2021/05/19 09:22:46;;;;;;;5.15;1.02;;;21.20;52.30;;;;;;4882145;29;20029;-73
2021/05/19 09:25:22;;;;;;;3.40;0.80;;;21.80;51.80;;;;;;4876052;29;20105;-76
2021/05/19 09:27:50;;;;;;;2.58;1.00;;;22.40;48.30;;;;;;4868806;29;20104;-79
2021/05/19 09:30:33;;;;;;;3.80;0.70;;;23.00;49.80;;;;;;4867176;29;20116;-72
2021/05/19 09:33:21;;;;;;;3.75;0.90;;;23.40;45.60;;;;;;4880495;29;20045;-73
2021/05/19 09:36:07;;;;;;;5.13;0.75;;;23.40;46.60;;;;;;4870175;29;20060;-73
2021/05/19 09:38:33;;;;;;;4.90;0.80;;;23.10;45.30;;;;;;4871968;29;20033;-76
2021/05/19 09:41:21;;;;;;;3.70;0.80;;;22.80;46.60;;;;;;4883579;29;20040;-74
2021/05/19 09:43:48;;;;;;;7.95;5.30;;;22.40;46.10;;;;;;4868343;29;20032;-77
2021/05/19 09:46:37;;;;;;;3.50;1.25;;;22.00;47.30;;;;;;4864006;29;20036;-74
2021/05/19 09:49:23;;;;;;;2.92;0.82;;;21.70;48.80;;;;;;4864712;29;20409;-74
2021/05/19 09:51:50;;;;;;;1.85;0.65;;;21.40;48.20;;;;;;4865081;29;20032;-74
2021/05/19 09:54:28;;;;;;;3.58;0.85;;;21.40;50.20;;;;;;4864033;29;20519;-74
2021/05/19 09:57:02;;;;;;;1.98;0.80;;;21.50;46.80;;;;;;4864902;29;20445;-74
2021/05/19 09:59:29;;;;;;;2.65;0.60;;;21.50;47.00;;;;;;4864052;29;20040;-75
2021/05/19 10:01:57;;;;;;;2.65;0.70;;;21.20;47.10;;;;;;4864823;29;20045;-74
2021/05/19 10:04:27;;;;;;;2.35;0.60;;;21.40;46.60;;;;;;4848550;29;20033;-75
2021/05/19 10:06:54;;;;;;;4.18;1.05;;;21.50;47.60;;;;;;4868019;29;20022;-75
2021/05/19 10:09:20;;;;;;;4.65;1.13;;;21.60;49.40;;;;;;4868911;29;20040;-77
2021/05/19 10:11:47;;;;;;;3.00;0.98;;;21.80;49.50;;;;;;4878347;29;20045;-75
2021/05/19 10:14:13;;;;;;;2.78;0.80;;;22.50;50.50;;;;;;4878989;29;20033;-78
2021/05/19 10:16:43;;;;;;;1.92;0.68;;;23.50;50.20;;;;;;4850149;29;21743;-76
2021/05/19 10:19:14;;;;;;;3.17;0.80;;;24.40;44.80;;;;;;4875113;29;20041;-74
2021/05/19 10:21:41;;;;;;;4.05;0.88;;;25.30;46.50;;;;;;4881953;29;20485;-74
2021/05/19 10:24:12;;;;;;;3.17;0.60;;;26.20;48.50;;;;;;4883070;29;20085;-75
2021/05/19 10:27:04;;;;;;;2.30;0.85;;;26.80;43.30;;;;;;4887628;29;20027;-74
2021/05/19 10:29:48;;;;;;;3.37;1.70;;;27.10;41.50;;;;;;4896680;29;20034;-73
2021/05/19 10:32:23;;;;;;;6.40;4.88;;;27.20;40.40;;;;;;4887009;29;20037;-73
2021/05/19 10:34:54;;;;;;;4.65;2.78;;;26.80;42.60;;;;;;4872343;29;20425;-74
2021/05/19 10:37:29;;;;;;;3.53;0.75;;;26.60;39.50;;;;;;4880423;29;20167;-74
2021/05/19 10:40:07;;;;;;;3.35;0.75;;;26.80;39.90;;;;;;4885679;29;20029;-73
2021/05/19 10:42:38;;;;;;;2.63;0.60;;;27.00;43.00;;;;;;4864151;29;20059;-73
2021/05/19 10:45:12;;;;;;;2.55;0.60;;;26.70;40.60;;;;;;4870917;29;20037;-73
2021/05/19 10:47:38;;;;;;;3.72;0.68;;;26.40;41.10;;;;;;4871950;29;20061;-73
2021/05/19 10:50:27;;;;;;;2.30;0.60;;;25.90;40.80;;;;;;4870482;29;20025;-73
2021/05/19 10:58:43;;;;;;;3.28;0.70;;;26.20;41.70;;;;;;4868270;29;20037;-73
2021/05/19 11:01:10;;;;;;;3.00;1.02;;;26.90;41.20;;;;;;4868105;29;20050;-73
2021/05/19 11:03:38;;;;;;;2.25;0.52;;;27.30;42.50;;;;;;4868075;29;20053;-74
2021/05/19 11:06:08;;;;;;;2.90;0.60;;;28.00;38.20;;;;;;4867882;29;20421;-73
2021/05/19 11:08:35;;;;;;;3.22;0.70;;;28.40;43.90;;;;;;4868815;29;20029;-75
2021/05/19 11:11:17;;;;;;;2.53;0.60;;;28.70;40.10;;;;;;4881760;29;20025;-74
2021/05/19 11:14:00;;;;;;;;;;;29.10;40.30;;;;;;4883809;29;20026;-76
2021/05/19 11:16:45;;;;;;;2.88;0.73;;;29.20;42.70;;;;;;4877033;29;19931;-76
2021/05/19 11:19:25;;;;;;;2.20;0.57;;;28.80;40.70;;;;;;4856464;29;20064;-75
2021/05/19 11:22:03;;;;;;;3.13;0.70;;;28.40;40.70;;;;;;4886159;29;20025;-74
2021/05/19 11:24:29;;;;;;;2.90;0.70;;;28.40;41.70;;;;;;4886154;29;20571;-74
2021/05/19 11:26:55;;;;;;;2.47;0.60;;;28.60;40.80;;;;;;4886024;29;20080;-75
2021/05/19 11:29:22;;;;;;;3.88;0.93;;;28.80;42.10;;;;;;4888724;29;20519;-74
2021/05/19 11:31:51;;;;;;;2.67;0.68;;;28.40;38.50;;;;;;4886026;29;20029;-75
2021/05/19 11:34:21;;;;;;;4.03;0.73;;;28.10;40.50;;;;;;4881994;29;20030;-75
2021/05/19 11:36:55;;;;;;;3.13;0.70;;;27.50;37.30;;;;;;4878533;29;20025;-75
2021/05/19 11:39:39;;;;;;;1.95;0.50;;;26.70;37.30;;;;;;4885772;29;20498;-75
2021/05/19 11:42:17;;;;;;;3.53;0.77;;;26.10;40.60;;;;;;4882437;29;20084;-74
2021/05/19 11:44:53;;;;;;;3.20;0.52;;;25.90;40.70;;;;;;4886074;29;20112;-74
2021/05/19 11:47:31;;;;;;;3.58;1.30;;;25.70;41.10;;;;;;4885712;29;20385;-76
2021/05/19 11:50:24;;;;;;;3.30;1.40;;;25.60;42.80;;;;;;4885788;29;20049;-73
2021/05/19 11:52:55;;;;;;;2.95;0.60;;;25.70;40.20;;;;;;4885791;29;20448;-74
2021/05/19 11:55:24;;;;;;;2.65;0.70;;;25.70;42.00;;;;;;4885912;29;20035;-73
2021/05/19 11:57:51;;;;;;;2.25;0.60;;;25.90;41.30;;;;;;4885723;29;20065;-74
2021/05/19 12:00:27;;;;;;;2.88;0.45;;;26.00;40.90;;;;;;4885502;29;20084;-73
2021/05/19 12:02:54;;;;;;;2.63;0.57;;;26.00;39.30;;;;;;4883573;29;20049;-73
2021/05/19 12:05:20;;;;;;;3.22;0.75;;;26.00;43.60;;;;;;4866643;29;20049;-74
2021/05/19 12:07:46;;;;;;;2.40;0.70;;;26.00;41.80;;;;;;4877692;29;20025;-74
2021/05/19 12:10:12;;;;;;;3.88;0.82;;;25.70;39.00;;;;;;4879855;29;20029;-73
2021/05/19 12:12:40;;;;;;;3.05;0.80;;;25.00;38.00;;;;;;4866380;29;20029;-74
2021/05/19 12:15:07;;;;;;;3.05;0.90;;;24.40;41.00;;;;;;4866887;29;20096;-73
2021/05/19 12:17:32;;;;;;;2.65;0.85;;;23.90;40.90;;;;;;4866895;29;20060;-74
2021/05/19 12:19:59;;;;;;;4.63;0.90;;;23.50;42.90;;;;;;4866501;29;20037;-74
2021/05/19 12:22:25;;;;;;;2.67;1.23;;;23.20;43.30;;;;;;4866798;29;20101;-73
2021/05/19 12:24:52;;;;;;;2.42;0.60;;;23.10;44.10;;;;;;4866609;29;20029;-73
2021/05/19 12:27:22;;;;;;;3.25;0.90;;;23.10;43.00;;;;;;4866258;29;20029;-73
2021/05/19 12:29:51;;;;;;;2.58;0.80;;;23.00;44.50;;;;;;4865182;29;20025;-72
2021/05/19 12:32:24;;;;;;;4.20;0.90;;;22.90;43.90;;;;;;4866684;29;20081;-72
2021/05/19 12:35:15;;;;;;;2.53;0.63;;;22.80;45.10;;;;;;4866392;29;20409;-74
2021/05/19 12:37:51;;;;;;;3.30;0.75;;;22.70;46.20;;;;;;4870336;29;20029;-74
2021/05/19 12:40:25;;;;;;;1.88;0.60;;;22.60;47.50;;;;;;4884001;29;20036;-73
2021/05/19 12:43:00;;;;;;;2.13;0.43;;;22.60;48.90;;;;;;4865002;29;20026;-74
2021/05/19 12:45:31;;;;;;;3.88;0.68;;;22.50;48.60;;;;;;4866181;29;20064;-74
2021/05/19 12:47:59;;;;;;;1.85;0.68;;;22.40;46.90;;;;;;4866411;29;20034;-74
2021/05/19 12:50:34;;;;;;;3.28;0.80;;;22.30;47.80;;;;;;4866066;29;20518;-73
2021/05/19 12:53:00;;;;;;;2.78;0.55;;;22.20;47.00;;;;;;4866418;29;20036;-74
2021/05/19 12:55:26;;;;;;;2.30;0.63;;;22.10;46.00;;;;;;4864770;29;20022;-74
2021/05/19 12:58:05;;;;;;;2.90;0.60;;;21.90;46.20;;;;;;4866001;29;20489;-74
2021/05/19 13:00:32;;;;;;;2.60;0.70;;;21.80;46.20;;;;;;4874032;29;20021;-74
2021/05/19 13:02:57;;;;;;;1.85;0.52;;;21.70;44.80;;;;;;4870254;29;20056;-75
2021/05/19 13:05:31;;;;;;;2.25;0.68;;;21.60;46.40;;;;;;4866239;29;20108;-74
2021/05/19 13:07:57;;;;;;;2.30;0.63;;;21.60;46.60;;;;;;4878192;29;20037;-75
2021/05/19 13:10:30;;;;;;;1.42;0.65;;;21.50;45.60;;;;;;4877826;29;20028;-75